Time;durP1;ratioP1;P1;durP2;ratioP2;P2;SDS_P1;SDS_P2;PMS_P1;PMS_P2;Temp;Humidity;BMP_temperature;BMP_pressure;BME280_temperature;BME280_humidity;BME280_pressure;Samples;Min_cycle;Max_cycle;Signal;HPM_P1;HPM_P2
2022/04/28 00:00:34;;;;;;;5.80;3.37;;;16.60;87.70;;;16.78;57.88;94908.31;5080468;28;20547;-55
2022/04/28 00:03:01;;;;;;;5.43;4.10;;;16.50;88.50;;;16.75;58.27;94906.00;5079154;28;20454;-57
2022/04/28 00:05:28;;;;;;;6.80;3.10;;;16.50;88.70;;;16.74;57.84;94909.66;5081395;28;20496;-57
2022/04/28 00:07:57;;;;;;;8.63;3.20;;;16.50;88.10;;;16.74;57.90;94919.47;5077278;28;20459;-56
2022/04/28 00:10:24;;;;;;;10.50;2.90;;;16.50;88.40;;;16.74;58.08;94925.59;5078540;28;20497;-56
2022/04/28 00:12:52;;;;;;;7.60;3.13;;;16.50;88.80;;;16.74;58.29;94924.78;5079045;28;20446;-56
2022/04/28 00:15:19;;;;;;;6.60;3.17;;;16.40;88.60;;;16.74;58.11;94925.59;5073909;28;20471;-54
2022/04/28 00:17:46;;;;;;;9.70;3.73;;;16.50;88.70;;;16.74;58.11;94924.78;5084722;28;21026;-56
2022/04/28 00:20:14;;;;;;;5.40;3.30;;;16.40;88.60;;;16.72;57.91;94937.41;5079110;28;20467;-56
2022/04/28 00:22:41;;;;;;;7.90;3.73;;;16.50;88.70;;;16.71;57.99;94941.06;5081721;28;20481;-57
2022/04/28 00:25:10;;;;;;;9.17;3.00;;;16.40;88.60;;;16.69;58.19;94940.44;5075590;28;20521;-57
2022/04/28 00:27:38;;;;;;;14.77;4.63;;;16.40;88.70;;;16.67;58.12;94940.59;5082081;28;20911;-56
2022/04/28 00:30:07;;;;;;;12.57;4.57;;;16.40;88.60;;;16.65;58.24;94939.94;5075935;28;20466;-57
2022/04/28 00:32:34;;;;;;;23.03;5.20;;;16.30;88.50;;;16.62;58.57;94940.28;5083223;28;20462;-55
2022/04/28 00:35:02;;;;;;;5.43;3.87;;;16.30;89.20;;;16.59;58.26;94945.94;5077664;28;20471;-54
2022/04/28 00:37:29;;;;;;;9.87;4.50;;;16.30;89.30;;;16.55;58.54;94947.31;5083470;28;20544;-56
2022/04/28 00:39:57;;;;;;;9.23;4.00;;;16.30;89.50;;;16.49;58.75;94939.03;5076758;28;20577;-55
2022/04/28 00:42:25;;;;;;;6.50;4.00;;;16.20;90.00;;;16.44;59.10;94954.66;5076673;28;20461;-54
2022/04/28 00:44:53;;;;;;;7.70;4.83;;;16.20;90.20;;;16.40;59.00;94949.88;5070906;28;20479;-56
2022/04/28 00:47:22;;;;;;;7.47;4.20;;;16.10;90.10;;;16.35;59.12;94952.22;5081159;28;21030;-53
2022/04/28 00:52:34;;;;;;;5.83;4.20;;;16.10;90.30;;;16.25;59.14;94957.72;5080595;28;20425;-57
2022/04/28 00:55:01;;;;;;;11.77;3.63;;;16.00;90.30;;;16.20;59.44;94952.13;5082474;28;20504;-54
2022/04/28 00:57:30;;;;;;;7.03;3.60;;;16.00;90.50;;;16.17;59.77;94958.59;5081119;28;21379;-54
2022/04/28 00:59:58;;;;;;;5.50;4.30;;;15.90;90.60;;;16.13;59.60;94955.47;5077957;28;20864;-55
2022/04/28 01:02:25;;;;;;;6.10;3.80;;;15.90;90.60;;;16.09;59.68;94959.44;5072195;28;20455;-54
2022/04/28 01:04:52;;;;;;;15.53;5.07;;;15.80;90.70;;;16.05;59.86;94963.47;5078867;28;20588;-56
2022/04/28 01:07:19;;;;;;;17.73;5.03;;;15.80;90.80;;;16.02;60.05;94955.84;5076896;28;20469;-54
2022/04/28 01:09:47;;;;;;;8.20;3.63;;;15.80;91.00;;;16.01;60.34;94954.19;5079807;28;20457;-54
2022/04/28 01:12:15;;;;;;;17.50;3.80;;;15.80;91.00;;;15.99;60.20;94953.53;5078925;28;20514;-54
2022/04/28 01:14:45;;;;;;;9.77;3.50;;;15.70;91.10;;;15.97;60.30;94955.50;5080106;28;20955;-54
2022/04/28 01:17:12;;;;;;;6.63;4.27;;;15.70;91.10;;;15.94;60.38;94958.50;5081059;28;20446;-55
2022/04/28 01:19:39;;;;;;;4.67;3.80;;;15.70;91.20;;;15.92;60.34;94968.47;5072588;28;20460;-55
2022/04/28 01:22:08;;;;;;;9.83;3.57;;;15.70;91.30;;;15.90;60.25;94965.16;5078768;28;20454;-55
2022/04/28 01:24:36;;;;;;;7.47;3.50;;;15.70;91.30;;;15.88;60.58;94961.84;5080293;28;20941;-56
2022/04/28 01:27:05;;;;;;;4.40;2.87;;;15.70;91.40;;;15.86;60.52;94961.19;5081538;28;20627;-54
2022/04/28 01:29:33;;;;;;;4.67;3.60;;;15.60;91.50;;;15.84;60.57;94966.66;5083325;28;20472;-56
2022/04/28 01:32:00;;;;;;;8.47;4.03;;;15.60;91.50;;;15.84;60.70;94971.16;5082353;28;20486;-55
2022/04/28 01:34:27;;;;;;;10.73;4.07;;;15.60;91.70;;;15.84;60.63;94964.00;5076624;28;20465;-55
2022/04/28 01:36:55;;;;;;;7.77;3.20;;;15.60;91.70;;;15.84;60.74;94965.84;5079379;28;20523;-56
2022/04/28 01:39:24;;;;;;;7.03;4.10;;;15.60;91.70;;;15.85;60.72;94972.78;5081436;28;20457;-56
2022/04/28 01:41:51;;;;;;;4.37;2.83;;;15.60;91.70;;;15.84;60.62;94971.97;5081497;28;20602;-53
2022/04/28 01:44:18;;;;;;;7.93;3.53;;;15.60;91.70;;;15.86;60.76;94971.78;5079948;28;20458;-55
2022/04/28 01:46:46;;;;;;;11.60;3.37;;;15.60;91.70;;;15.86;60.70;94975.25;5083924;28;20474;-55
2022/04/28 01:49:13;;;;;;;8.00;3.23;;;15.60;91.70;;;15.87;60.96;94970.81;5076952;28;20817;-56
2022/04/28 01:57:22;;;;;;;7.37;3.50;;;15.60;91.70;;;15.86;61.08;94974.44;5067106;28;20448;-55
2022/04/28 01:59:50;;;;;;;10.63;3.70;;;15.60;92.00;;;15.86;60.86;94982.41;5077950;28;20449;-56
2022/04/28 02:02:18;;;;;;;18.17;3.90;;;15.60;92.00;;;15.85;61.04;94989.53;5071756;28;20466;-55
2022/04/28 02:04:45;;;;;;;7.50;4.00;;;15.60;92.00;;;15.84;61.05;94984.41;5076547;28;20451;-55
2022/04/28 02:07:13;;;;;;;9.73;3.50;;;15.60;92.10;;;15.84;61.19;94987.06;5076457;28;20463;-55
2022/04/28 02:09:42;;;;;;;8.97;3.67;;;15.60;92.20;;;15.84;61.13;94984.41;5074545;28;20453;-56
2022/04/28 02:12:10;;;;;;;4.10;3.20;;;15.60;92.20;;;15.85;61.11;94986.03;5069803;28;20563;-55
2022/04/28 02:14:37;;;;;;;4.10;2.67;;;15.60;92.20;;;15.84;61.16;94987.88;5076733;28;20839;-56
2022/04/28 02:17:06;;;;;;;2.80;2.53;;;15.60;92.30;;;15.84;61.44;94992.38;5073106;28;20963;-55
2022/04/28 02:19:34;;;;;;;5.70;3.20;;;15.60;92.40;;;15.86;61.43;94987.72;5080239;28;20456;-55
2022/04/28 02:22:02;;;;;;;8.03;3.10;;;15.60;92.50;;;15.87;61.44;94986.72;5074063;28;20505;-55
2022/04/28 02:24:29;;;;;;;3.33;3.10;;;15.60;92.60;;;15.86;61.57;94988.53;5076707;28;20442;-56
2022/04/28 02:26:58;;;;;;;7.87;3.47;;;15.60;92.70;;;15.87;61.62;94997.34;5075522;28;20890;-55
2022/04/28 02:29:25;;;;;;;2.83;2.63;;;15.60;92.60;;;15.88;61.61;94998.97;5078270;28;20472;-56
2022/04/28 02:31:52;;;;;;;3.73;3.03;;;15.70;92.70;;;15.89;61.73;94990.03;5074876;28;20505;-55
2022/04/28 02:34:20;;;;;;;3.80;2.60;;;15.60;92.70;;;15.89;61.72;94992.69;5077935;28;20469;-56
2022/04/28 02:36:47;;;;;;;3.70;3.40;;;15.60;92.70;;;15.87;61.44;94995.50;5078066;28;20908;-53
2022/04/28 02:39:15;;;;;;;3.03;2.83;;;15.60;92.70;;;15.86;61.77;94999.13;5076433;28;20486;-55
2022/04/28 02:41:42;;;;;;;3.93;3.50;;;15.60;92.80;;;15.87;61.83;95000.81;5074899;28;20596;-55
2022/04/28 02:44:12;;;;;;;4.20;3.40;;;15.60;92.80;;;15.86;61.79;94995.66;5084013;28;20843;-55
2022/04/28 02:46:39;;;;;;;4.90;4.30;;;15.60;92.90;;;15.87;61.85;94995.50;5079607;28;20474;-55
2022/04/28 02:49:06;;;;;;;6.13;3.63;;;15.60;92.90;;;15.88;61.95;95001.63;5079968;28;20445;-56
2022/04/28 02:51:33;;;;;;;5.27;3.23;;;15.60;93.00;;;15.89;61.75;95004.09;5078935;28;20493;-56
2022/04/28 02:54:01;;;;;;;4.27;3.97;;;15.60;92.90;;;15.90;61.34;95003.13;5079971;28;20451;-55
2022/04/28 02:56:28;;;;;;;4.03;3.73;;;15.60;92.80;;;15.90;61.63;95013.72;5077080;28;20474;-57
2022/04/28 02:58:55;;;;;;;3.83;3.53;;;15.60;92.90;;;15.90;61.67;95004.94;5072828;28;20450;-54
2022/04/28 03:01:24;;;;;;;3.83;3.30;;;15.60;92.90;;;15.90;61.73;95004.94;5077202;28;20482;-57
2022/04/28 03:03:51;;;;;;;6.03;3.43;;;15.60;92.90;;;15.90;61.87;95019.03;5078709;28;20523;-57
2022/04/28 03:11:48;;;;;;;4.43;3.93;;;15.60;93.00;;;15.92;62.03;95016.22;5078174;28;20558;-55
2022/04/28 03:14:15;;;;;;;4.83;3.93;;;15.60;93.10;;;15.89;62.20;95019.19;5079224;28;20529;-53
2022/04/28 03:16:43;;;;;;;6.03;3.63;;;15.60;93.30;;;15.84;62.24;95018.88;5082724;28;20474;-55
2022/04/28 03:19:11;;;;;;;5.43;4.87;;;15.60;93.30;;;15.79;62.42;95032.66;5075567;28;20456;-55
2022/04/28 03:21:38;;;;;;;5.63;4.93;;;15.60;93.40;;;15.75;62.29;95029.50;5079446;28;20474;-53
2022/04/28 03:24:06;;;;;;;5.37;4.87;;;15.50;93.30;;;15.72;62.64;95037.78;5079037;28;20901;-55
2022/04/28 03:26:33;;;;;;;6.20;5.63;;;15.50;93.60;;;15.69;63.36;95027.50;5079850;28;20466;-58
2022/04/28 03:29:01;;;;;;;6.40;4.73;;;15.50;94.00;;;15.66;63.07;95037.59;5079204;28;20520;-56
2022/04/28 03:31:28;;;;;;;7.33;5.27;;;15.40;93.80;;;15.63;62.94;95036.13;5071926;28;20491;-56
2022/04/28 03:33:57;;;;;;;6.43;5.83;;;15.40;93.90;;;15.60;63.20;95039.94;5072970;28;20458;-55
2022/04/28 03:39:09;;;;;;;7.57;6.87;;;15.30;94.00;;;15.55;63.76;95059.97;5077138;28;20555;-55
2022/04/28 03:41:36;;;;;;;8.13;7.17;;;15.30;94.40;;;15.51;63.35;95056.00;5077734;28;20470;-56
2022/04/28 03:44:04;;;;;;;7.20;6.50;;;15.30;94.30;;;15.50;63.42;95059.66;5084112;28;20550;-55
2022/04/28 03:46:31;;;;;;;7.90;6.60;;;15.30;94.30;;;15.49;63.55;95068.59;5072298;28;20474;-56
2022/04/28 03:49:00;;;;;;;6.90;6.23;;;15.30;94.30;;;15.50;63.50;95070.25;5073388;28;20492;-55
2022/04/28 03:51:27;;;;;;;5.87;5.47;;;15.20;94.30;;;15.53;63.44;95069.94;5075783;28;21021;-55
2022/04/28 03:53:59;;;;;;;6.40;5.90;;;15.20;94.30;;;15.54;63.49;95071.59;5073749;28;20451;-55
2022/04/28 03:56:30;;;;;;;7.63;6.77;;;15.30;94.30;;;15.56;63.65;95064.28;5076376;28;21020;-55
2022/04/28 03:58:57;;;;;;;9.40;6.30;;;15.30;94.30;;;15.53;63.67;95073.41;5075300;28;20585;-55
2022/04/28 04:01:25;;;;;;;7.90;5.73;;;15.30;94.50;;;15.50;64.13;95064.97;5073067;28;20587;-56
2022/04/28 04:03:52;;;;;;;7.10;6.07;;;15.30;94.80;;;15.44;63.99;95074.38;5064718;28;20458;-56
2022/04/28 04:06:21;;;;;;;6.70;5.83;;;15.20;94.50;;;15.38;64.00;95078.53;5068597;28;20548;-54
2022/04/28 04:08:49;;;;;;;9.93;6.03;;;15.10;94.60;;;15.32;63.85;95079.19;5083710;28;20476;-56
2022/04/28 04:11:16;;;;;;;5.80;5.40;;;15.10;94.50;;;15.34;63.77;95073.72;5073943;28;20554;-55
2022/04/28 04:13:45;;;;;;;5.33;4.83;;;15.10;94.60;;;15.35;64.23;95088.63;5072706;28;20465;-54
2022/04/28 04:16:12;;;;;;;4.60;4.20;;;15.10;94.80;;;15.36;63.92;95085.00;5068908;28;21014;-54
2022/04/28 04:18:40;;;;;;;3.80;3.60;;;15.10;94.60;;;15.36;63.60;95083.16;5063656;28;20778;-57
2022/04/28 04:21:07;;;;;;;4.47;3.53;;;15.10;94.50;;;15.33;63.53;95080.84;5065212;28;20487;-55
2022/04/28 04:23:36;;;;;;;4.13;3.60;;;15.10;94.20;;;15.30;63.31;95080.34;5059082;28;20478;-55
2022/04/28 04:26:03;;;;;;;3.77;3.47;;;15.00;94.20;;;15.26;63.75;95085.16;5068977;28;20463;-55
2022/04/28 04:28:30;;;;;;;13.00;3.47;;;15.00;94.20;;;15.26;63.48;95085.16;5064211;28;20459;-56
2022/04/28 04:33:42;;;;;;;3.63;3.40;;;15.00;94.20;;;15.29;63.74;95089.28;5067503;28;22121;-54
2022/04/28 04:36:09;;;;;;;3.13;2.93;;;15.00;94.50;;;15.30;63.38;95094.41;5064129;28;20474;-56
2022/04/28 04:38:38;;;;;;;2.47;2.27;;;15.00;94.20;;;15.30;63.18;95096.25;5066447;28;20461;-54
2022/04/28 04:41:10;;;;;;;7.30;2.50;;;15.00;94.20;;;15.32;63.32;95095.09;5061051;28;20481;-55
2022/04/28 04:43:38;;;;;;;1.80;1.70;;;15.00;94.20;;;15.30;63.33;95091.75;5064009;28;20978;-57
2022/04/28 04:46:05;;;;;;;1.73;1.63;;;15.10;94.20;;;15.32;62.93;95095.09;5066050;28;20485;-58
2022/04/28 04:48:33;;;;;;;29.00;3.70;;;15.10;94.10;;;15.31;62.93;95105.88;5070530;28;21078;-55
2022/04/28 04:51:02;;;;;;;30.30;9.93;;;15.10;94.00;;;15.28;62.83;95101.72;5075749;28;20477;-55
2022/04/28 04:53:30;;;;;;;25.57;6.33;;;15.00;93.90;;;15.28;63.17;95109.66;5066477;28;20517;-58
2022/04/28 04:55:58;;;;;;;2.53;2.37;;;15.10;94.20;;;15.27;63.13;95115.13;5071236;28;20466;-57
2022/04/28 04:58:26;;;;;;;1.83;1.73;;;15.00;94.00;;;15.27;62.57;95118.59;5061851;28;20459;-57
2022/04/28 05:00:54;;;;;;;3.73;2.03;;;15.00;93.60;;;15.23;62.40;95118.09;5065935;28;20463;-54
2022/04/28 05:03:21;;;;;;;1.67;1.50;;;15.00;93.40;;;15.20;62.19;95121.06;5061855;28;20540;-55
2022/04/28 05:05:49;;;;;;;1.40;1.30;;;15.00;93.30;;;15.18;61.98;95114.25;5072297;28;20478;-55
2022/04/28 05:08:17;;;;;;;2.50;1.57;;;15.00;93.30;;;15.15;62.36;95117.22;5066224;28;20457;-56
2022/04/28 05:10:44;;;;;;;2.30;1.40;;;14.90;93.20;;;15.12;62.08;95118.41;5072836;28;20470;-54
2022/04/28 05:13:13;;;;;;;4.80;1.07;;;14.90;93.20;;;15.09;62.07;95123.19;5069055;28;20910;-55
2022/04/28 05:15:40;;;;;;;1.00;0.90;;;14.90;93.10;;;15.02;61.88;95137.06;5072438;28;20471;-56
2022/04/28 05:18:07;;;;;;;0.80;0.63;;;14.80;93.00;;;14.99;61.98;95136.56;5076352;28;20450;-55
2022/04/28 05:20:35;;;;;;;2.70;1.47;;;14.80;93.10;;;14.95;62.06;95141.38;5076569;28;20471;-56
2022/04/28 05:23:02;;;;;;;5.00;1.20;;;14.70;93.10;;;14.89;61.98;95136.72;5075452;28;20577;-55
2022/04/28 05:25:30;;;;;;;1.37;1.27;;;14.70;92.90;;;14.83;62.19;95145.28;5075153;28;20540;-55
2022/04/28 05:27:57;;;;;;;1.87;1.03;;;14.60;93.10;;;14.80;62.20;95142.97;5077270;28;20463;-53
2022/04/28 05:30:26;;;;;;;1.37;1.27;;;14.60;93.10;;;14.77;62.17;95146.75;5072165;28;20548;-57
2022/04/28 05:32:53;;;;;;;1.17;1.07;;;14.50;93.20;;;14.74;62.23;95148.88;5075270;28;20534;-53
2022/04/28 05:35:21;;;;;;;11.37;1.40;;;14.50;93.10;;;14.68;62.26;95145.88;5073599;28;20683;-57
2022/04/28 05:37:48;;;;;;;2.60;1.67;;;14.50;93.30;;;14.69;62.39;95162.59;5079429;28;20456;-54
2022/04/28 05:40:16;;;;;;;4.73;1.03;;;14.50;93.30;;;14.65;62.19;95164.72;5070430;28;20477;-56
2022/04/28 05:45:43;;;;;;;6.63;0.80;;;14.40;93.30;;;14.58;62.69;95170.75;5075847;28;21072;-54
2022/04/28 05:48:10;;;;;;;5.90;1.10;;;14.40;93.50;;;14.53;62.45;95173.88;5071954;28;20541;-55
2022/04/28 05:50:38;;;;;;;6.30;1.00;;;14.30;93.40;;;14.50;62.50;95182.13;5081038;28;20519;-57
2022/04/28 05:53:06;;;;;;;0.80;0.80;;;14.30;93.50;;;14.46;63.04;95180.81;5077590;28;21026;-54
2022/04/28 05:55:33;;;;;;;1.10;1.00;;;14.20;94.10;;;14.39;62.74;95179.75;5077098;28;20466;-55
2022/04/28 05:58:00;;;;;;;1.33;1.20;;;14.20;93.70;;;14.34;63.42;95180.22;5059278;28;20499;-54
2022/04/28 06:00:28;;;;;;;3.97;2.30;;;14.10;93.90;;;14.29;63.49;95183.34;5079304;28;20494;-55
2022/04/28 06:02:57;;;;;;;4.23;1.00;;;14.10;94.10;;;14.25;63.73;95192.59;5068423;28;20537;-55
2022/04/28 06:05:24;;;;;;;4.60;0.90;;;14.10;94.70;;;14.20;63.91;95184.25;5068303;28;20478;-55
2022/04/28 06:07:52;;;;;;;4.83;0.73;;;14.00;94.30;;;14.19;63.57;95189.72;5080184;28;20461;-56
2022/04/28 06:10:19;;;;;;;9.30;0.90;;;14.00;94.20;;;14.18;63.47;95190.72;5068432;28;20642;-54
2022/04/28 06:12:46;;;;;;;0.80;0.70;;;14.00;94.20;;;14.17;63.73;95195.16;5074788;28;21025;-53
2022/04/28 06:15:14;;;;;;;0.80;0.60;;;14.00;94.40;;;14.19;63.91;95198.50;5074229;28;20463;-56
2022/04/28 06:17:41;;;;;;;0.83;0.80;;;14.00;94.40;;;14.19;64.30;95193.19;5082956;28;20450;-56
2022/04/28 06:20:11;;;;;;;0.97;0.87;;;14.00;94.60;;;14.16;63.88;95198.81;5080525;28;21055;-55
2022/04/28 06:22:39;;;;;;;5.63;1.00;;;14.00;94.50;;;14.12;64.07;95189.50;5079225;28;20454;-57
2022/04/28 06:25:07;;;;;;;6.73;0.80;;;13.90;94.60;;;14.09;63.83;95197.75;5071586;28;20462;-55
2022/04/28 06:27:36;;;;;;;1.53;0.90;;;13.90;94.50;;;14.04;64.29;95197.38;5079277;28;20468;-54
2022/04/28 06:30:04;;;;;;;7.90;1.30;;;13.90;94.60;;;14.08;64.03;95194.28;5079338;28;20553;-54
2022/04/28 06:32:32;;;;;;;1.10;1.00;;;13.90;94.70;;;14.09;64.04;95203.03;5082534;28;20496;-55
2022/04/28 06:34:59;;;;;;;2.60;1.17;;;13.90;94.40;;;14.09;64.23;95210.97;5079860;28;21137;-57
2022/04/28 06:37:28;;;;;;;1.17;1.07;;;13.90;94.80;;;14.08;63.96;95201.34;5081203;28;20457;-54
2022/04/28 06:39:55;;;;;;;1.83;0.80;;;13.90;94.80;;;14.09;64.03;95203.84;5082497;28;20564;-56
2022/04/28 06:42:23;;;;;;;5.60;1.00;;;13.90;94.80;;;14.13;64.36;95209.69;5082320;28;20457;-54
2022/04/28 06:44:50;;;;;;;4.63;0.90;;;13.90;94.90;;;14.15;64.31;95213.81;5077771;28;20474;-54
2022/04/28 06:47:17;;;;;;;0.90;0.70;;;14.00;95.00;;;14.17;64.41;95205.72;5078848;28;20838;-55
2022/04/28 06:49:45;;;;;;;2.97;1.40;;;14.00;94.90;;;14.20;64.49;95212.53;5079032;28;20455;-60
2022/04/28 06:52:12;;;;;;;2.50;1.03;;;14.00;94.90;;;14.19;64.55;95211.72;5082176;28;20446;-55
2022/04/28 06:54:41;;;;;;;0.80;0.70;;;14.00;95.10;;;14.19;63.93;95211.72;5076768;28;20470;-54
2022/04/28 06:57:08;;;;;;;0.90;0.70;;;14.00;94.70;;;14.19;64.20;95209.06;5064880;28;20517;-55
2022/04/28 06:59:35;;;;;;;7.03;0.70;;;14.00;94.80;;;14.22;63.80;95214.06;5064369;28;20447;-56
2022/04/28 07:02:04;;;;;;;8.80;1.00;;;14.00;94.80;;;14.24;64.14;95212.09;5065648;28;20664;-56
2022/04/28 07:04:32;;;;;;;0.80;0.70;;;14.00;94.70;;;14.24;64.23;95220.03;5064309;28;20455;-56
2022/04/28 07:06:59;;;;;;;2.60;0.70;;;14.00;94.70;;;14.28;64.05;95218.75;5066818;28;20451;-55
2022/04/28 07:09:26;;;;;;;1.10;0.60;;;14.10;94.90;;;14.33;64.08;95219.09;5076375;28;20461;-57
2022/04/28 07:11:55;;;;;;;1.10;1.00;;;14.10;94.90;;;14.37;63.86;95216.13;5069571;28;20470;-56
2022/04/28 07:14:22;;;;;;;1.23;0.87;;;14.20;94.70;;;14.39;63.91;95222.94;5076450;28;21059;-56
2022/04/28 07:16:50;;;;;;;2.90;0.87;;;14.20;94.60;;;14.42;64.35;95209.41;5070526;28;20547;-55
2022/04/28 07:19:17;;;;;;;1.10;0.90;;;14.20;94.80;;;14.46;63.52;95215.22;5071567;28;20451;-57
2022/04/28 07:21:44;;;;;;;1.10;1.00;;;14.30;94.60;;;14.49;63.68;95228.13;5071067;28;20490;-55
2022/04/28 07:24:11;;;;;;;0.80;0.63;;;14.30;94.50;;;14.53;63.27;95221.53;5070737;28;20462;-56
2022/04/28 07:26:39;;;;;;;1.43;1.20;;;14.30;94.30;;;14.55;62.99;95227.50;5068722;28;20497;-57
2022/04/28 07:29:07;;;;;;;1.00;0.80;;;14.30;94.10;;;14.55;63.31;95226.66;5065111;28;20446;-56
2022/04/28 07:31:36;;;;;;;4.93;1.20;;;14.30;94.20;;;14.53;63.09;95230.31;5077885;28;20918;-54
2022/04/28 07:34:03;;;;;;;1.63;1.03;;;14.30;94.20;;;14.55;63.39;95232.81;5075329;28;20482;-57
2022/04/28 07:36:31;;;;;;;1.10;0.90;;;14.30;94.10;;;14.55;62.87;95230.16;5077747;28;20468;-57
2022/04/28 07:38:59;;;;;;;8.83;1.10;;;14.30;93.90;;;14.52;63.28;95230.47;5074528;28;20459;-56
2022/04/28 07:41:26;;;;;;;2.20;0.90;;;14.30;93.90;;;14.52;63.18;95233.94;5079625;28;20565;-57
2022/04/28 07:43:53;;;;;;;2.43;1.30;;;14.30;94.10;;;14.56;63.69;95221.22;5068954;28;20561;-56
2022/04/28 07:46:22;;;;;;;3.10;1.30;;;14.30;94.40;;;14.59;63.58;95235.97;5068329;28;20544;-55
2022/04/28 07:48:49;;;;;;;3.20;1.40;;;14.30;94.40;;;14.59;62.95;95238.63;5078606;28;20451;-55
2022/04/28 07:51:17;;;;;;;1.40;1.00;;;14.30;93.90;;;14.62;62.90;95230.41;5079937;28;20466;-56
2022/04/28 07:53:44;;;;;;;1.20;1.10;;;14.40;93.90;;;14.65;62.87;95238.03;5066251;28;20518;-55
2022/04/28 07:56:13;;;;;;;4.50;1.30;;;14.40;94.00;;;14.69;62.72;95234.91;5078340;28;20508;-56
2022/04/28 07:58:41;;;;;;;2.00;0.80;;;14.50;93.80;;;14.69;62.50;95240.19;5073300;28;20890;-56
2022/04/28 08:01:08;;;;;;;1.77;1.03;;;14.40;93.70;;;14.70;62.85;95241.03;5073107;28;20557;-58
2022/04/28 08:03:38;;;;;;;9.03;1.27;;;14.50;93.80;;;14.71;62.81;95240.03;5072464;28;20513;-56
2022/04/28 08:06:05;;;;;;;2.50;1.00;;;14.50;93.80;;;14.76;62.78;95242.22;5078498;28;20466;-56
2022/04/28 08:08:35;;;;;;;3.10;1.30;;;14.50;94.00;;;14.81;62.59;95245.22;5077356;28;20457;-56
2022/04/28 08:11:03;;;;;;;12.10;1.47;;;14.60;94.00;;;14.85;62.93;95241.28;5077814;28;20497;-56
2022/04/28 08:13:30;;;;;;;9.13;2.30;;;14.60;94.00;;;14.85;62.92;95242.09;5076054;28;20501;-55
2022/04/28 08:15:58;;;;;;;1.70;1.60;;;14.60;93.80;;;14.84;62.85;95243.13;5078572;28;20554;-55
2022/04/28 08:18:25;;;;;;;1.40;1.30;;;14.60;93.90;;;14.86;62.68;95245.59;5075443;28;20454;-56
2022/04/28 08:20:54;;;;;;;1.73;1.63;;;14.60;93.80;;;14.88;62.30;95248.91;5066754;28;20470;-56
2022/04/28 08:23:21;;;;;;;1.53;1.40;;;14.60;93.70;;;14.93;62.59;95254.56;5082867;28;20529;-56
2022/04/28 08:25:49;;;;;;;5.37;1.53;;;14.70;93.70;;;14.97;62.40;95249.81;5072714;28;20495;-55
2022/04/28 08:28:16;;;;;;;1.37;1.23;;;14.70;93.70;;;15.00;62.38;95250.31;5077665;28;20458;-56
2022/04/28 08:30:44;;;;;;;2.50;1.13;;;14.70;93.60;;;15.02;62.20;95253.63;5076687;28;20476;-56
2022/04/28 08:33:11;;;;;;;4.60;1.17;;;14.80;93.40;;;15.04;61.83;95262.25;5077287;28;20493;-56
2022/04/28 08:35:38;;;;;;;13.47;1.90;;;14.70;93.20;;;15.01;62.01;95251.13;5076404;28;20475;-56
2022/04/28 08:38:07;;;;;;;4.30;2.00;;;14.70;93.40;;;14.97;62.67;95253.28;5080009;28;20449;-56
2022/04/28 08:40:34;;;;;;;3.67;1.70;;;14.80;93.60;;;15.02;62.51;95261.56;5066771;28;20471;-55
2022/04/28 08:43:04;;;;;;;4.10;1.63;;;14.80;93.70;;;15.05;62.41;95263.91;5082567;28;20465;-57
2022/04/28 08:45:38;;;;;;;4.00;1.53;;;14.80;93.50;;;15.12;62.30;95263.28;5076272;28;20478;-56
2022/04/28 08:48:07;;;;;;;5.00;1.03;;;14.90;93.50;;;15.17;62.25;95258.34;5079219;28;20442;-55
2022/04/28 08:50:35;;;;;;;1.83;1.23;;;14.90;93.50;;;15.21;62.19;95257.88;5073932;28;20473;-57
2022/04/28 08:53:02;;;;;;;5.60;0.90;;;15.00;93.40;;;15.27;61.82;95259.03;5079530;28;20489;-54
2022/04/28 08:55:31;;;;;;;3.17;1.20;;;15.00;93.30;;;15.32;61.64;95258.56;5075439;28;21009;-55
2022/04/28 08:57:58;;;;;;;2.80;1.43;;;15.10;93.10;;;15.35;61.80;95251.16;5075344;28;20469;-55
2022/04/28 09:00:26;;;;;;;1.70;1.43;;;15.10;93.10;;;15.39;61.67;95254.28;5075200;28;20517;-55
2022/04/28 09:02:53;;;;;;;3.57;1.27;;;15.10;93.00;;;15.44;61.44;95259.13;5076963;28;20466;-57
2022/04/28 09:05:20;;;;;;;2.93;1.73;;;15.20;92.90;;;15.42;61.16;95251.31;5075866;28;20540;-56
2022/04/28 09:07:48;;;;;;;5.73;1.60;;;15.20;92.50;;;15.38;61.15;95260.56;5081431;28;20457;-56
2022/04/28 09:10:28;;;;;;;3.73;2.00;;;15.10;92.50;;;15.38;61.47;95258.78;5074707;28;20562;-57
2022/04/28 09:14:09;;;;;;;4.10;1.73;;;15.10;92.70;;;15.43;61.32;95266.25;5075638;28;20930;-57
2022/04/28 09:15:50;;;;;;;1.60;1.20;;;15.20;92.60;;;15.49;60.83;95268.25;5077392;28;20505;-55
2022/04/28 09:18:17;;;;;;;6.63;1.90;;;15.20;92.40;;;15.54;60.93;95262.47;5072816;28;21050;-57
2022/04/28 09:20:45;;;;;;;2.23;2.03;;;15.30;92.40;;;15.58;60.78;95263.78;5075903;28;20466;-56
2022/04/28 09:23:13;;;;;;;1.77;1.50;;;15.30;92.30;;;15.63;60.75;95263.31;5079904;28;20451;-57
2022/04/28 09:25:42;;;;;;;4.70;1.80;;;15.40;92.30;;;15.68;60.44;95264.50;5080738;28;20465;-56
2022/04/28 09:28:11;;;;;;;3.00;1.50;;;15.40;92.20;;;15.70;60.30;95262.50;5082103;28;20461;-57
2022/04/28 09:30:48;;;;;;;2.40;1.57;;;15.50;91.80;;;15.71;60.10;95266.00;5082773;28;20478;-56
2022/04/28 09:33:16;;;;;;;1.97;1.87;;;15.40;91.60;;;15.73;60.11;95264.00;5081005;28;20477;-55
2022/04/28 09:35:48;;;;;;;1.60;1.50;;;15.50;91.70;;;15.75;59.82;95265.53;5076190;28;20489;-56
2022/04/28 09:38:15;;;;;;;2.67;1.57;;;15.50;91.50;;;15.73;59.55;95272.78;5075568;28;20827;-57
2022/04/28 09:43:43;;;;;;;4.43;1.97;;;15.50;91.40;;;15.70;59.86;95270.47;5039264;28;20477;-58
2022/04/28 09:46:10;;;;;;;3.73;1.50;;;15.40;91.60;;;15.74;59.73;95263.03;5074145;28;20532;-56
2022/04/28 09:48:37;;;;;;;5.20;3.00;;;15.50;91.50;;;15.77;59.94;95262.75;5084595;28;20472;-56
2022/04/28 09:51:09;;;;;;;3.53;2.20;;;15.50;91.60;;;15.84;59.60;95262.91;5083178;28;20474;-55
2022/04/28 09:53:37;;;;;;;4.20;2.00;;;15.50;91.50;;;15.84;59.42;95258.44;5084664;28;20486;-57
2022/04/28 09:56:07;;;;;;;2.17;1.90;;;15.60;91.20;;;15.88;59.56;95253.63;5084624;28;20516;-54
2022/04/28 09:58:34;;;;;;;4.77;2.47;;;15.60;91.40;;;15.92;59.56;95254.97;5072527;28;20451;-56
2022/04/28 10:01:03;;;;;;;3.40;2.67;;;15.60;91.30;;;15.99;59.51;95261.28;5084759;28;20508;-55
2022/04/28 10:03:33;;;;;;;1.77;1.67;;;15.70;91.30;;;15.99;59.02;95258.63;5076533;28;20496;-56
2022/04/28 10:06:02;;;;;;;4.67;2.67;;;15.70;90.90;;;15.99;59.38;95261.28;5077116;28;20479;-56
2022/04/28 10:08:32;;;;;;;3.57;2.23;;;15.70;91.10;;;16.01;59.50;95256.63;5077933;28;20516;-56
2022/04/28 10:11:01;;;;;;;5.10;2.50;;;15.70;91.10;;;16.08;59.30;95262.94;5082485;28;20554;-57
2022/04/28 10:13:29;;;;;;;2.57;2.37;;;15.80;91.00;;;16.13;58.89;95257.97;5085921;28;20496;-56
2022/04/28 10:16:00;;;;;;;4.60;2.67;;;15.80;90.90;;;16.19;59.07;95250.34;5084163;28;20552;-55
2022/04/28 10:18:32;;;;;;;7.93;2.97;;;15.90;90.90;;;16.27;58.59;95253.03;5079509;28;20447;-56
2022/04/28 10:21:01;;;;;;;5.63;2.57;;;16.00;90.70;;;16.32;58.66;95253.34;5083244;28;20838;-54
2022/04/28 10:34:34;;;;;;;2.63;2.43;;;16.10;90.10;;;16.28;58.66;95254.66;5079680;28;20481;-56
2022/04/28 10:37:05;;;;;;;2.93;2.70;;;16.00;90.20;;;16.31;58.55;95246.38;5085100;28;20450;-55
2022/04/28 10:39:39;;;;;;;2.90;2.60;;;16.00;90.30;;;16.33;58.36;95247.03;5081015;28;20442;-55
2022/04/28 10:42:15;;;;;;;13.00;3.20;;;16.10;90.30;;;16.34;58.31;95243.38;5080387;28;20446;-56
2022/04/28 10:44:54;;;;;;;4.17;3.23;;;16.10;90.20;;;16.37;58.32;95247.53;5081219;28;20880;-56
2022/04/28 10:47:30;;;;;;;3.23;3.07;;;16.10;90.10;;;16.40;58.04;95247.19;5075297;28;20452;-57
2022/04/28 10:49:59;;;;;;;4.03;3.73;;;16.10;90.10;;;16.42;58.07;95248.69;5082428;28;20501;-56
2022/04/28 10:52:27;;;;;;;5.67;2.80;;;16.20;90.20;;;16.46;57.99;95244.69;5073479;28;20454;-56
2022/04/28 10:54:55;;;;;;;4.00;3.60;;;16.20;90.20;;;16.52;58.23;95240.56;5081874;28;20497;-56
2022/04/28 10:57:30;;;;;;;4.27;3.43;;;16.20;90.10;;;16.59;57.43;95238.06;5080686;28;20886;-57